sensor_id;sensor_type;location;lat;lon;timestamp;P1;durP1;ratioP1;P2;durP2;ratioP2
49610;SDS011;35515;48.766;9.176;2023-12-28T00:01:12;3.65;;;2.22;;
49610;SDS011;35515;48.766;9.176;2023-12-28T00:03:39;2.25;;;2.00;;
49610;SDS011;35515;48.766;9.176;2023-12-28T00:06:07;4.65;;;2.20;;
49610;SDS011;35515;48.766;9.176;2023-12-28T00:08:35;5.40;;;2.42;;
49610;SDS011;35515;48.766;9.176;2023-12-28T00:11:01;4.60;;;2.42;;
49610;SDS011;35515;48.766;9.176;2023-12-28T00:13:27;4.00;;;2.00;;
49610;SDS011;35515;48.766;9.176;2023-12-28T00:15:54;4.00;;;2.15;;
49610;SDS011;35515;48.766;9.176;2023-12-28T00:18:20;4.13;;;2.22;;
49610;SDS011;35515;48.766;9.176;2023-12-28T00:20:47;31.48;;;18.85;;
49610;SDS011;35515;48.766;9.176;2023-12-28T00:23:15;41.45;;;25.15;;
49610;SDS011;35515;48.766;9.176;2023-12-28T00:25:42;34.85;;;20.75;;
49610;SDS011;35515;48.766;9.176;2023-12-28T00:28:08;9.82;;;5.82;;
49610;SDS011;35515;48.766;9.176;2023-12-28T00:30:35;3.10;;;2.38;;
49610;SDS011;35515;48.766;9.176;2023-12-28T00:33:01;3.63;;;2.47;;
49610;SDS011;35515;48.766;9.176;2023-12-28T00:35:28;2.88;;;2.20;;
49610;SDS011;35515;48.766;9.176;2023-12-28T00:37:55;5.10;;;2.53;;
49610;SDS011;35515;48.766;9.176;2023-12-28T00:40:23;4.47;;;2.05;;
49610;SDS011;35515;48.766;9.176;2023-12-28T00:42:49;5.50;;;3.63;;
49610;SDS011;35515;48.766;9.176;2023-12-28T00:45:16;3.85;;;2.22;;
49610;SDS011;35515;48.766;9.176;2023-12-28T00:47:42;3.85;;;2.30;;
49610;SDS011;35515;48.766;9.176;2023-12-28T00:50:09;2.90;;;1.92;;
49610;SDS011;35515;48.766;9.176;2023-12-28T00:52:36;2.45;;;1.90;;
49610;SDS011;35515;48.766;9.176;2023-12-28T00:55:03;3.22;;;2.33;;
49610;SDS011;35515;48.766;9.176;2023-12-28T00:57:32;3.30;;;2.10;;
49610;SDS011;35515;48.766;9.176;2023-12-28T00:59:58;3.00;;;2.10;;
49610;SDS011;35515;48.766;9.176;2023-12-28T01:02:25;3.33;;;2.38;;
49610;SDS011;35515;48.766;9.176;2023-12-28T01:04:51;4.32;;;2.90;;
49610;SDS011;35515;48.766;9.176;2023-12-28T01:07:18;4.07;;;2.17;;
49610;SDS011;35515;48.766;9.176;2023-12-28T01:09:44;3.85;;;2.47;;
49610;SDS011;35515;48.766;9.176;2023-12-28T01:12:11;4.78;;;2.20;;
49610;SDS011;35515;48.766;9.176;2023-12-28T01:14:39;4.35;;;2.58;;
49610;SDS011;35515;48.766;9.176;2023-12-28T01:17:06;3.50;;;2.53;;
49610;SDS011;35515;48.766;9.176;2023-12-28T01:19:32;3.20;;;2.35;;
49610;SDS011;35515;48.766;9.176;2023-12-28T01:21:59;3.90;;;2.50;;
49610;SDS011;35515;48.766;9.176;2023-12-28T01:24:25;4.00;;;2.30;;
49610;SDS011;35515;48.766;9.176;2023-12-28T01:26:52;3.45;;;2.40;;
49610;SDS011;35515;48.766;9.176;2023-12-28T01:29:18;3.15;;;2.25;;
49610;SDS011;35515;48.766;9.176;2023-12-28T01:31:46;3.08;;;2.33;;
49610;SDS011;35515;48.766;9.176;2023-12-28T01:34:13;3.67;;;2.50;;
49610;SDS011;35515;48.766;9.176;2023-12-28T01:36:39;3.63;;;2.40;;
49610;SDS011;35515;48.766;9.176;2023-12-28T01:39:09;3.50;;;2.60;;
49610;SDS011;35515;48.766;9.176;2023-12-28T01:41:36;3.88;;;2.53;;
49610;SDS011;35515;48.766;9.176;2023-12-28T01:44:03;3.75;;;2.10;;
49610;SDS011;35515;48.766;9.176;2023-12-28T01:46:30;3.30;;;2.28;;
49610;SDS011;35515;48.766;9.176;2023-12-28T01:48:58;3.47;;;2.53;;
49610;SDS011;35515;48.766;9.176;2023-12-28T01:51:26;4.15;;;2.45;;
49610;SDS011;35515;48.766;9.176;2023-12-28T01:53:53;4.00;;;2.40;;
49610;SDS011;35515;48.766;9.176;2023-12-28T01:56:20;3.92;;;3.15;;
49610;SDS011;35515;48.766;9.176;2023-12-28T01:58:48;4.65;;;2.92;;
49610;SDS011;35515;48.766;9.176;2023-12-28T02:01:15;3.97;;;2.78;;
49610;SDS011;35515;48.766;9.176;2023-12-28T02:03:43;4.28;;;2.88;;
49610;SDS011;35515;48.766;9.176;2023-12-28T02:06:11;5.30;;;3.03;;
49610;SDS011;35515;48.766;9.176;2023-12-28T02:08:41;4.35;;;2.90;;
49610;SDS011;35515;48.766;9.176;2023-12-28T02:11:07;4.45;;;2.40;;
49610;SDS011;35515;48.766;9.176;2023-12-28T02:13:34;3.55;;;2.40;;
49610;SDS011;35515;48.766;9.176;2023-12-28T02:16:02;4.10;;;2.60;;
49610;SDS011;35515;48.766;9.176;2023-12-28T02:18:37;7.85;;;2.00;;
49610;SDS011;35515;48.766;9.176;2023-12-28T02:21:07;3.03;;;2.08;;
49610;SDS011;35515;48.766;9.176;2023-12-28T02:23:35;4.00;;;2.42;;
49610;SDS011;35515;48.766;9.176;2023-12-28T02:26:03;3.35;;;2.28;;
49610;SDS011;35515;48.766;9.176;2023-12-28T02:28:30;2.63;;;1.90;;
49610;SDS011;35515;48.766;9.176;2023-12-28T02:30:57;4.18;;;2.38;;
49610;SDS011;35515;48.766;9.176;2023-12-28T02:33:26;2.92;;;2.17;;
49610;SDS011;35515;48.766;9.176;2023-12-28T02:36:01;3.55;;;2.50;;
49610;SDS011;35515;48.766;9.176;2023-12-28T02:38:30;4.18;;;2.70;;
49610;SDS011;35515;48.766;9.176;2023-12-28T02:43:30;4.75;;;2.65;;
49610;SDS011;35515;48.766;9.176;2023-12-28T02:45:58;4.43;;;3.30;;
49610;SDS011;35515;48.766;9.176;2023-12-28T02:48:24;4.43;;;2.92;;
49610;SDS011;35515;48.766;9.176;2023-12-28T02:50:51;5.28;;;3.05;;
49610;SDS011;35515;48.766;9.176;2023-12-28T02:53:18;5.38;;;2.78;;
49610;SDS011;35515;48.766;9.176;2023-12-28T02:55:44;4.55;;;2.90;;
49610;SDS011;35515;48.766;9.176;2023-12-28T02:58:12;6.93;;;3.15;;
49610;SDS011;35515;48.766;9.176;2023-12-28T03:00:39;4.40;;;2.50;;
49610;SDS011;35515;48.766;9.176;2023-12-28T03:03:05;5.20;;;2.53;;
49610;SDS011;35515;48.766;9.176;2023-12-28T03:05:32;5.43;;;2.67;;
49610;SDS011;35515;48.766;9.176;2023-12-28T03:07:58;5.78;;;2.22;;
49610;SDS011;35515;48.766;9.176;2023-12-28T03:10:25;4.15;;;2.78;;
49610;SDS011;35515;48.766;9.176;2023-12-28T03:12:51;3.22;;;2.20;;
49610;SDS011;35515;48.766;9.176;2023-12-28T03:15:19;3.47;;;2.47;;
49610;SDS011;35515;48.766;9.176;2023-12-28T03:17:46;3.38;;;1.92;;
49610;SDS011;35515;48.766;9.176;2023-12-28T03:20:12;5.40;;;2.72;;
49610;SDS011;35515;48.766;9.176;2023-12-28T03:22:39;4.60;;;2.53;;
49610;SDS011;35515;48.766;9.176;2023-12-28T03:25:06;4.00;;;2.50;;
49610;SDS011;35515;48.766;9.176;2023-12-28T03:27:32;3.75;;;2.65;;
49610;SDS011;35515;48.766;9.176;2023-12-28T03:29:59;4.80;;;2.88;;
49610;SDS011;35515;48.766;9.176;2023-12-28T03:32:27;3.63;;;2.28;;
49610;SDS011;35515;48.766;9.176;2023-12-28T03:34:54;3.55;;;2.35;;
49610;SDS011;35515;48.766;9.176;2023-12-28T03:37:20;5.22;;;2.58;;
49610;SDS011;35515;48.766;9.176;2023-12-28T03:39:47;4.45;;;2.90;;
49610;SDS011;35515;48.766;9.176;2023-12-28T03:42:13;3.92;;;2.40;;
49610;SDS011;35515;48.766;9.176;2023-12-28T03:44:40;4.68;;;3.05;;
49610;SDS011;35515;48.766;9.176;2023-12-28T03:47:06;4.18;;;2.58;;
49610;SDS011;35515;48.766;9.176;2023-12-28T03:49:34;4.95;;;2.40;;
49610;SDS011;35515;48.766;9.176;2023-12-28T03:52:01;3.35;;;2.10;;
49610;SDS011;35515;48.766;9.176;2023-12-28T03:54:27;2.28;;;1.85;;
49610;SDS011;35515;48.766;9.176;2023-12-28T03:56:54;5.88;;;2.70;;
49610;SDS011;35515;48.766;9.176;2023-12-28T03:59:20;3.75;;;2.47;;
49610;SDS011;35515;48.766;9.176;2023-12-28T04:01:47;2.88;;;2.30;;
49610;SDS011;35515;48.766;9.176;2023-12-28T04:04:13;3.22;;;2.20;;
49610;SDS011;35515;48.766;9.176;2023-12-28T04:06:41;5.25;;;2.05;;
49610;SDS011;35515;48.766;9.176;2023-12-28T04:09:10;5.13;;;2.45;;
49610;SDS011;35515;48.766;9.176;2023-12-28T04:11:37;3.85;;;2.35;;
49610;SDS011;35515;48.766;9.176;2023-12-28T04:14:04;4.55;;;2.70;;
49610;SDS011;35515;48.766;9.176;2023-12-28T04:16:30;3.45;;;2.42;;
49610;SDS011;35515;48.766;9.176;2023-12-28T04:18:57;4.72;;;2.30;;
49610;SDS011;35515;48.766;9.176;2023-12-28T04:21:23;3.67;;;2.40;;
49610;SDS011;35515;48.766;9.176;2023-12-28T04:23:51;3.03;;;2.10;;
49610;SDS011;35515;48.766;9.176;2023-12-28T04:26:18;4.35;;;2.28;;
49610;SDS011;35515;48.766;9.176;2023-12-28T04:28:45;3.55;;;2.10;;
49610;SDS011;35515;48.766;9.176;2023-12-28T04:31:11;4.97;;;2.20;;
49610;SDS011;35515;48.766;9.176;2023-12-28T04:33:38;3.05;;;2.17;;
49610;SDS011;35515;48.766;9.176;2023-12-28T04:36:05;3.72;;;2.28;;
49610;SDS011;35515;48.766;9.176;2023-12-28T04:38:32;4.53;;;2.20;;
49610;SDS011;35515;48.766;9.176;2023-12-28T04:41:00;3.78;;;2.10;;
49610;SDS011;35515;48.766;9.176;2023-12-28T04:43:27;5.28;;;2.47;;
49610;SDS011;35515;48.766;9.176;2023-12-28T04:45:53;4.90;;;2.63;;
49610;SDS011;35515;48.766;9.176;2023-12-28T04:48:20;2.22;;;2.00;;
49610;SDS011;35515;48.766;9.176;2023-12-28T04:50:48;3.30;;;2.03;;
49610;SDS011;35515;48.766;9.176;2023-12-28T04:53:15;3.65;;;2.72;;
49610;SDS011;35515;48.766;9.176;2023-12-28T04:55:42;6.15;;;3.08;;
49610;SDS011;35515;48.766;9.176;2023-12-28T04:58:11;3.80;;;2.40;;
49610;SDS011;35515;48.766;9.176;2023-12-28T05:00:37;3.58;;;2.42;;
49610;SDS011;35515;48.766;9.176;2023-12-28T05:03:04;3.67;;;2.30;;
49610;SDS011;35515;48.766;9.176;2023-12-28T05:05:31;3.50;;;2.20;;
49610;SDS011;35515;48.766;9.176;2023-12-28T05:07:57;5.03;;;2.35;;
49610;SDS011;35515;48.766;9.176;2023-12-28T05:10:24;3.95;;;2.00;;
49610;SDS011;35515;48.766;9.176;2023-12-28T05:12:50;4.18;;;2.72;;
49610;SDS011;35515;48.766;9.176;2023-12-28T05:15:18;4.13;;;2.60;;
49610;SDS011;35515;48.766;9.176;2023-12-28T05:17:45;4.22;;;2.25;;
49610;SDS011;35515;48.766;9.176;2023-12-28T05:20:11;3.65;;;2.33;;
49610;SDS011;35515;48.766;9.176;2023-12-28T05:22:38;3.80;;;2.35;;
49610;SDS011;35515;48.766;9.176;2023-12-28T05:25:05;4.18;;;2.45;;
49610;SDS011;35515;48.766;9.176;2023-12-28T05:27:32;5.68;;;2.30;;
49610;SDS011;35515;48.766;9.176;2023-12-28T05:29:58;6.97;;;2.92;;
49610;SDS011;35515;48.766;9.176;2023-12-28T05:32:26;4.25;;;2.30;;
49610;SDS011;35515;48.766;9.176;2023-12-28T05:34:53;2.55;;;1.95;;
49610;SDS011;35515;48.766;9.176;2023-12-28T05:37:19;3.72;;;2.22;;
49610;SDS011;35515;48.766;9.176;2023-12-28T05:39:46;3.28;;;1.80;;
49610;SDS011;35515;48.766;9.176;2023-12-28T05:42:12;2.85;;;1.90;;
49610;SDS011;35515;48.766;9.176;2023-12-28T05:44:39;5.13;;;2.20;;
49610;SDS011;35515;48.766;9.176;2023-12-28T05:47:05;3.90;;;2.15;;
49610;SDS011;35515;48.766;9.176;2023-12-28T05:49:33;4.55;;;2.40;;
49610;SDS011;35515;48.766;9.176;2023-12-28T05:52:00;3.60;;;2.13;;
49610;SDS011;35515;48.766;9.176;2023-12-28T05:54:26;3.47;;;2.28;;
49610;SDS011;35515;48.766;9.176;2023-12-28T05:56:53;2.60;;;2.00;;
49610;SDS011;35515;48.766;9.176;2023-12-28T05:59:20;2.95;;;1.95;;
49610;SDS011;35515;48.766;9.176;2023-12-28T06:01:47;3.88;;;2.10;;
49610;SDS011;35515;48.766;9.176;2023-12-28T06:04:14;3.00;;;1.88;;
49610;SDS011;35515;48.766;9.176;2023-12-28T06:06:42;3.28;;;2.22;;
49610;SDS011;35515;48.766;9.176;2023-12-28T06:09:08;5.25;;;2.05;;
49610;SDS011;35515;48.766;9.176;2023-12-28T06:11:35;3.17;;;1.90;;
49610;SDS011;35515;48.766;9.176;2023-12-28T06:14:01;3.55;;;1.73;;
49610;SDS011;35515;48.766;9.176;2023-12-28T06:16:28;3.10;;;1.90;;
49610;SDS011;35515;48.766;9.176;2023-12-28T06:18:57;3.17;;;1.83;;
49610;SDS011;35515;48.766;9.176;2023-12-28T06:21:24;3.42;;;1.90;;
49610;SDS011;35515;48.766;9.176;2023-12-28T06:23:52;2.55;;;1.75;;
49610;SDS011;35515;48.766;9.176;2023-12-28T06:26:18;5.88;;;1.83;;
49610;SDS011;35515;48.766;9.176;2023-12-28T06:28:45;2.83;;;1.98;;
49610;SDS011;35515;48.766;9.176;2023-12-28T06:31:12;3.17;;;1.75;;
49610;SDS011;35515;48.766;9.176;2023-12-28T06:33:38;3.20;;;1.90;;
49610;SDS011;35515;48.766;9.176;2023-12-28T06:36:05;2.95;;;2.00;;
49610;SDS011;35515;48.766;9.176;2023-12-28T06:38:32;3.20;;;2.00;;
49610;SDS011;35515;48.766;9.176;2023-12-28T06:41:00;2.20;;;1.50;;
49610;SDS011;35515;48.766;9.176;2023-12-28T06:43:26;2.60;;;1.80;;
49610;SDS011;35515;48.766;9.176;2023-12-28T06:45:53;2.70;;;1.77;;
49610;SDS011;35515;48.766;9.176;2023-12-28T06:48:20;2.92;;;1.90;;
49610;SDS011;35515;48.766;9.176;2023-12-28T06:50:46;2.38;;;1.80;;
49610;SDS011;35515;48.766;9.176;2023-12-28T06:53:13;3.05;;;2.05;;
49610;SDS011;35515;48.766;9.176;2023-12-28T06:55:39;4.57;;;2.53;;
49610;SDS011;35515;48.766;9.176;2023-12-28T06:58:07;3.58;;;2.55;;
49610;SDS011;35515;48.766;9.176;2023-12-28T07:00:34;5.35;;;2.80;;
49610;SDS011;35515;48.766;9.176;2023-12-28T07:03:00;3.72;;;2.38;;
49610;SDS011;35515;48.766;9.176;2023-12-28T07:05:27;3.13;;;2.25;;
49610;SDS011;35515;48.766;9.176;2023-12-28T07:07:53;8.70;;;2.72;;
49610;SDS011;35515;48.766;9.176;2023-12-28T07:10:20;4.25;;;2.30;;
49610;SDS011;35515;48.766;9.176;2023-12-28T07:12:46;5.25;;;2.22;;
49610;SDS011;35515;48.766;9.176;2023-12-28T07:15:14;3.13;;;2.05;;
49610;SDS011;35515;48.766;9.176;2023-12-28T07:17:41;3.03;;;1.85;;
49610;SDS011;35515;48.766;9.176;2023-12-28T07:20:07;3.85;;;2.25;;
49610;SDS011;35515;48.766;9.176;2023-12-28T07:22:35;2.90;;;1.90;;
49610;SDS011;35515;48.766;9.176;2023-12-28T07:25:02;4.35;;;2.70;;
49610;SDS011;35515;48.766;9.176;2023-12-28T07:27:30;4.60;;;2.75;;
49610;SDS011;35515;48.766;9.176;2023-12-28T07:29:56;4.72;;;2.42;;
49610;SDS011;35515;48.766;9.176;2023-12-28T07:32:24;5.25;;;2.38;;
49610;SDS011;35515;48.766;9.176;2023-12-28T07:34:51;4.65;;;2.10;;
49610;SDS011;35515;48.766;9.176;2023-12-28T07:37:18;4.63;;;2.42;;
49610;SDS011;35515;48.766;9.176;2023-12-28T07:39:44;3.10;;;2.00;;
49610;SDS011;35515;48.766;9.176;2023-12-28T07:42:11;4.55;;;2.58;;
49610;SDS011;35515;48.766;9.176;2023-12-28T07:44:37;10.48;;;2.42;;
49610;SDS011;35515;48.766;9.176;2023-12-28T07:47:05;5.47;;;2.47;;
49610;SDS011;35515;48.766;9.176;2023-12-28T07:49:33;11.23;;;2.95;;
49610;SDS011;35515;48.766;9.176;2023-12-28T07:52:00;6.30;;;2.58;;
49610;SDS011;35515;48.766;9.176;2023-12-28T07:54:27;4.45;;;2.55;;
49610;SDS011;35515;48.766;9.176;2023-12-28T07:56:54;4.40;;;2.67;;
49610;SDS011;35515;48.766;9.176;2023-12-28T07:59:20;5.28;;;2.92;;
49610;SDS011;35515;48.766;9.176;2023-12-28T08:01:47;7.15;;;3.35;;
49610;SDS011;35515;48.766;9.176;2023-12-28T08:04:14;5.50;;;3.22;;
49610;SDS011;35515;48.766;9.176;2023-12-28T08:06:41;6.30;;;3.47;;
49610;SDS011;35515;48.766;9.176;2023-12-28T08:09:08;6.10;;;3.45;;
49610;SDS011;35515;48.766;9.176;2023-12-28T08:11:35;6.10;;;3.85;;
49610;SDS011;35515;48.766;9.176;2023-12-28T08:14:01;5.15;;;3.40;;
49610;SDS011;35515;48.766;9.176;2023-12-28T08:16:28;6.07;;;3.15;;
49610;SDS011;35515;48.766;9.176;2023-12-28T08:18:55;6.82;;;4.10;;
49610;SDS011;35515;48.766;9.176;2023-12-28T08:21:21;7.40;;;3.90;;
49610;SDS011;35515;48.766;9.176;2023-12-28T08:23:49;4.68;;;3.20;;
49610;SDS011;35515;48.766;9.176;2023-12-28T08:26:16;6.78;;;3.42;;
49610;SDS011;35515;48.766;9.176;2023-12-28T08:28:43;7.30;;;4.45;;
49610;SDS011;35515;48.766;9.176;2023-12-28T08:31:10;7.25;;;3.63;;
49610;SDS011;35515;48.766;9.176;2023-12-28T08:33:37;6.55;;;3.95;;
49610;SDS011;35515;48.766;9.176;2023-12-28T08:36:05;6.88;;;3.45;;
49610;SDS011;35515;48.766;9.176;2023-12-28T08:38:32;6.15;;;3.53;;
49610;SDS011;35515;48.766;9.176;2023-12-28T08:41:01;9.82;;;3.80;;
49610;SDS011;35515;48.766;9.176;2023-12-28T08:43:28;9.30;;;3.80;;
49610;SDS011;35515;48.766;9.176;2023-12-28T08:45:55;8.80;;;4.15;;
49610;SDS011;35515;48.766;9.176;2023-12-28T08:48:21;8.50;;;4.40;;
49610;SDS011;35515;48.766;9.176;2023-12-28T08:50:48;8.88;;;3.78;;
49610;SDS011;35515;48.766;9.176;2023-12-28T08:53:15;6.90;;;4.05;;
49610;SDS011;35515;48.766;9.176;2023-12-28T08:55:41;7.00;;;3.58;;
49610;SDS011;35515;48.766;9.176;2023-12-28T08:58:09;6.72;;;3.50;;
49610;SDS011;35515;48.766;9.176;2023-12-28T09:00:35;6.85;;;3.80;;
49610;SDS011;35515;48.766;9.176;2023-12-28T09:03:03;7.47;;;3.80;;
49610;SDS011;35515;48.766;9.176;2023-12-28T09:05:30;7.20;;;3.53;;
49610;SDS011;35515;48.766;9.176;2023-12-28T09:07:56;4.75;;;3.22;;
49610;SDS011;35515;48.766;9.176;2023-12-28T09:10:23;5.50;;;3.35;;
49610;SDS011;35515;48.766;9.176;2023-12-28T09:12:49;8.10;;;3.90;;
49610;SDS011;35515;48.766;9.176;2023-12-28T09:15:17;7.13;;;3.47;;
49610;SDS011;35515;48.766;9.176;2023-12-28T09:17:44;6.70;;;3.20;;
49610;SDS011;35515;48.766;9.176;2023-12-28T09:20:11;7.38;;;3.10;;
49610;SDS011;35515;48.766;9.176;2023-12-28T09:22:37;5.53;;;3.20;;
49610;SDS011;35515;48.766;9.176;2023-12-28T09:25:04;5.35;;;2.80;;
49610;SDS011;35515;48.766;9.176;2023-12-28T09:27:31;5.72;;;2.97;;
49610;SDS011;35515;48.766;9.176;2023-12-28T09:29:58;6.00;;;3.13;;
49610;SDS011;35515;48.766;9.176;2023-12-28T09:32:25;7.68;;;2.92;;
49610;SDS011;35515;48.766;9.176;2023-12-28T09:34:52;5.35;;;2.90;;
49610;SDS011;35515;48.766;9.176;2023-12-28T09:37:19;5.80;;;3.10;;
49610;SDS011;35515;48.766;9.176;2023-12-28T09:39:45;7.50;;;3.33;;
49610;SDS011;35515;48.766;9.176;2023-12-28T09:42:14;5.65;;;2.97;;
49610;SDS011;35515;48.766;9.176;2023-12-28T09:44:48;6.05;;;3.58;;
49610;SDS011;35515;48.766;9.176;2023-12-28T09:47:15;6.60;;;3.30;;
49610;SDS011;35515;48.766;9.176;2023-12-28T09:49:43;5.13;;;2.35;;
49610;SDS011;35515;48.766;9.176;2023-12-28T09:52:11;8.60;;;2.60;;
49610;SDS011;35515;48.766;9.176;2023-12-28T09:54:38;4.55;;;2.50;;
49610;SDS011;35515;48.766;9.176;2023-12-28T09:57:04;4.35;;;2.10;;
49610;SDS011;35515;48.766;9.176;2023-12-28T09:59:30;6.07;;;2.60;;
49610;SDS011;35515;48.766;9.176;2023-12-28T10:01:58;5.20;;;1.95;;
49610;SDS011;35515;48.766;9.176;2023-12-28T10:04:27;4.78;;;2.28;;
49610;SDS011;35515;48.766;9.176;2023-12-28T10:06:56;5.25;;;2.70;;
49610;SDS011;35515;48.766;9.176;2023-12-28T10:09:23;6.05;;;2.72;;
49610;SDS011;35515;48.766;9.176;2023-12-28T10:11:52;7.55;;;3.38;;
49610;SDS011;35515;48.766;9.176;2023-12-28T10:14:19;7.30;;;4.00;;
49610;SDS011;35515;48.766;9.176;2023-12-28T10:16:48;5.70;;;3.80;;
49610;SDS011;35515;48.766;9.176;2023-12-28T10:19:15;4.68;;;2.70;;
49610;SDS011;35515;48.766;9.176;2023-12-28T10:21:47;6.18;;;2.72;;
49610;SDS011;35515;48.766;9.176;2023-12-28T10:24:15;3.35;;;1.90;;
49610;SDS011;35515;48.766;9.176;2023-12-28T10:26:42;4.95;;;2.10;;
49610;SDS011;35515;48.766;9.176;2023-12-28T10:29:08;3.35;;;1.88;;
49610;SDS011;35515;48.766;9.176;2023-12-28T10:31:35;3.75;;;2.20;;
49610;SDS011;35515;48.766;9.176;2023-12-28T10:34:01;3.13;;;2.00;;
49610;SDS011;35515;48.766;9.176;2023-12-28T10:36:28;3.47;;;1.67;;
49610;SDS011;35515;48.766;9.176;2023-12-28T10:38:54;3.47;;;1.80;;
49610;SDS011;35515;48.766;9.176;2023-12-28T10:41:24;2.97;;;1.85;;
49610;SDS011;35515;48.766;9.176;2023-12-28T10:43:57;4.60;;;1.80;;
49610;SDS011;35515;48.766;9.176;2023-12-28T10:46:30;3.08;;;2.10;;
49610;SDS011;35515;48.766;9.176;2023-12-28T10:48:58;3.58;;;2.13;;
49610;SDS011;35515;48.766;9.176;2023-12-28T10:51:27;4.07;;;2.03;;
49610;SDS011;35515;48.766;9.176;2023-12-28T10:54:05;4.40;;;2.20;;
49610;SDS011;35515;48.766;9.176;2023-12-28T10:56:41;3.75;;;2.08;;
49610;SDS011;35515;48.766;9.176;2023-12-28T10:59:15;9.52;;;5.43;;
49610;SDS011;35515;48.766;9.176;2023-12-28T11:01:46;7.78;;;3.53;;
49610;SDS011;35515;48.766;9.176;2023-12-28T11:04:17;5.93;;;3.55;;
49610;SDS011;35515;48.766;9.176;2023-12-28T11:06:50;4.53;;;2.72;;
49610;SDS011;35515;48.766;9.176;2023-12-28T11:09:17;6.63;;;3.45;;
49610;SDS011;35515;48.766;9.176;2023-12-28T11:11:48;5.57;;;2.80;;
49610;SDS011;35515;48.766;9.176;2023-12-28T11:14:17;4.65;;;2.38;;
49610;SDS011;35515;48.766;9.176;2023-12-28T11:16:44;3.30;;;1.80;;
49610;SDS011;35515;48.766;9.176;2023-12-28T11:19:11;3.00;;;1.63;;
49610;SDS011;35515;48.766;9.176;2023-12-28T11:21:38;3.85;;;1.83;;
49610;SDS011;35515;48.766;9.176;2023-12-28T11:24:05;5.45;;;2.65;;
49610;SDS011;35515;48.766;9.176;2023-12-28T11:26:33;5.22;;;2.17;;
49610;SDS011;35515;48.766;9.176;2023-12-28T11:29:01;4.70;;;2.42;;
49610;SDS011;35515;48.766;9.176;2023-12-28T11:31:28;4.20;;;2.30;;
49610;SDS011;35515;48.766;9.176;2023-12-28T11:33:58;5.40;;;2.20;;
49610;SDS011;35515;48.766;9.176;2023-12-28T11:36:25;3.03;;;1.90;;
49610;SDS011;35515;48.766;9.176;2023-12-28T11:39:00;4.30;;;1.50;;
49610;SDS011;35515;48.766;9.176;2023-12-28T11:41:30;3.05;;;1.45;;
49610;SDS011;35515;48.766;9.176;2023-12-28T11:43:57;4.68;;;2.35;;
49610;SDS011;35515;48.766;9.176;2023-12-28T11:46:30;6.28;;;2.35;;
49610;SDS011;35515;48.766;9.176;2023-12-28T11:49:02;2.50;;;1.85;;
49610;SDS011;35515;48.766;9.176;2023-12-28T11:51:29;2.78;;;1.98;;
49610;SDS011;35515;48.766;9.176;2023-12-28T11:53:56;6.35;;;2.88;;
49610;SDS011;35515;48.766;9.176;2023-12-28T11:56:25;10.38;;;6.75;;
49610;SDS011;35515;48.766;9.176;2023-12-28T11:58:52;4.50;;;2.80;;
49610;SDS011;35515;48.766;9.176;2023-12-28T12:01:20;4.38;;;3.00;;
49610;SDS011;35515;48.766;9.176;2023-12-28T12:03:47;7.57;;;3.30;;
49610;SDS011;35515;48.766;9.176;2023-12-28T12:06:14;4.95;;;2.00;;
49610;SDS011;35515;48.766;9.176;2023-12-28T12:08:44;2.75;;;1.75;;
49610;SDS011;35515;48.766;9.176;2023-12-28T12:11:11;3.40;;;2.03;;
49610;SDS011;35515;48.766;9.176;2023-12-28T12:13:37;4.38;;;2.08;;
49610;SDS011;35515;48.766;9.176;2023-12-28T12:16:05;2.90;;;1.83;;
49610;SDS011;35515;48.766;9.176;2023-12-28T12:18:34;3.47;;;1.67;;
49610;SDS011;35515;48.766;9.176;2023-12-28T12:21:01;2.25;;;1.50;;
49610;SDS011;35515;48.766;9.176;2023-12-28T12:23:28;2.40;;;1.55;;
49610;SDS011;35515;48.766;9.176;2023-12-28T12:25:54;2.85;;;1.65;;
49610;SDS011;35515;48.766;9.176;2023-12-28T12:28:21;2.55;;;1.58;;
49610;SDS011;35515;48.766;9.176;2023-12-28T12:30:51;5.25;;;1.90;;
49610;SDS011;35515;48.766;9.176;2023-12-28T12:33:20;2.83;;;1.70;;
49610;SDS011;35515;48.766;9.176;2023-12-28T12:35:48;2.90;;;1.80;;
49610;SDS011;35515;48.766;9.176;2023-12-28T12:38:15;2.03;;;1.60;;
49610;SDS011;35515;48.766;9.176;2023-12-28T12:40:42;3.63;;;1.45;;
49610;SDS011;35515;48.766;9.176;2023-12-28T12:43:08;2.42;;;1.40;;
49610;SDS011;35515;48.766;9.176;2023-12-28T12:45:36;3.05;;;2.10;;
49610;SDS011;35515;48.766;9.176;2023-12-28T12:48:03;3.00;;;1.60;;
49610;SDS011;35515;48.766;9.176;2023-12-28T12:50:30;3.15;;;2.00;;
49610;SDS011;35515;48.766;9.176;2023-12-28T12:53:00;4.35;;;2.83;;
49610;SDS011;35515;48.766;9.176;2023-12-28T12:55:26;3.90;;;2.38;;
49610;SDS011;35515;48.766;9.176;2023-12-28T12:57:53;3.63;;;2.50;;
49610;SDS011;35515;48.766;9.176;2023-12-28T13:00:20;3.50;;;1.90;;
49610;SDS011;35515;48.766;9.176;2023-12-28T13:02:48;3.83;;;2.70;;
49610;SDS011;35515;48.766;9.176;2023-12-28T13:05:16;3.70;;;2.35;;
49610;SDS011;35515;48.766;9.176;2023-12-28T13:07:43;4.60;;;2.00;;
49610;SDS011;35515;48.766;9.176;2023-12-28T13:10:11;3.10;;;1.88;;
49610;SDS011;35515;48.766;9.176;2023-12-28T13:12:37;4.28;;;2.13;;
49610;SDS011;35515;48.766;9.176;2023-12-28T13:15:04;2.22;;;1.63;;
49610;SDS011;35515;48.766;9.176;2023-12-28T13:17:34;2.20;;;1.85;;
49610;SDS011;35515;48.766;9.176;2023-12-28T13:20:01;2.63;;;1.70;;
49610;SDS011;35515;48.766;9.176;2023-12-28T13:22:28;3.08;;;1.85;;
49610;SDS011;35515;48.766;9.176;2023-12-28T13:24:54;4.45;;;2.80;;
49610;SDS011;35515;48.766;9.176;2023-12-28T13:27:23;4.00;;;2.30;;
49610;SDS011;35515;48.766;9.176;2023-12-28T13:29:50;3.00;;;2.15;;
49610;SDS011;35515;48.766;9.176;2023-12-28T13:32:16;3.97;;;2.40;;
49610;SDS011;35515;48.766;9.176;2023-12-28T13:34:43;5.32;;;2.50;;
49610;SDS011;35515;48.766;9.176;2023-12-28T13:37:09;14.55;;;6.32;;
49610;SDS011;35515;48.766;9.176;2023-12-28T13:39:36;9.02;;;5.30;;
49610;SDS011;35515;48.766;9.176;2023-12-28T13:42:04;6.18;;;4.07;;
49610;SDS011;35515;48.766;9.176;2023-12-28T13:44:33;5.28;;;2.40;;
49610;SDS011;35515;48.766;9.176;2023-12-28T13:47:00;5.50;;;2.03;;
49610;SDS011;35515;48.766;9.176;2023-12-28T13:49:27;4.18;;;2.22;;
49610;SDS011;35515;48.766;9.176;2023-12-28T13:51:53;6.63;;;1.70;;
49610;SDS011;35515;48.766;9.176;2023-12-28T13:54:20;3.83;;;1.60;;
49610;SDS011;35515;48.766;9.176;2023-12-28T13:56:47;2.70;;;1.60;;
49610;SDS011;35515;48.766;9.176;2023-12-28T13:59:13;3.97;;;1.60;;
49610;SDS011;35515;48.766;9.176;2023-12-28T14:01:42;2.78;;;1.90;;
49610;SDS011;35515;48.766;9.176;2023-12-28T14:04:08;3.55;;;1.70;;
49610;SDS011;35515;48.766;9.176;2023-12-28T14:06:35;5.35;;;2.05;;
49610;SDS011;35515;48.766;9.176;2023-12-28T14:09:01;2.88;;;1.48;;
49610;SDS011;35515;48.766;9.176;2023-12-28T14:11:28;2.55;;;1.90;;
49610;SDS011;35515;48.766;9.176;2023-12-28T14:13:54;2.50;;;1.80;;
49610;SDS011;35515;48.766;9.176;2023-12-28T14:16:21;4.78;;;1.92;;
49610;SDS011;35515;48.766;9.176;2023-12-28T14:18:49;4.65;;;1.83;;
49610;SDS011;35515;48.766;9.176;2023-12-28T14:21:17;3.03;;;1.58;;
49610;SDS011;35515;48.766;9.176;2023-12-28T14:23:44;3.75;;;1.80;;
49610;SDS011;35515;48.766;9.176;2023-12-28T14:26:12;3.17;;;1.85;;
49610;SDS011;35515;48.766;9.176;2023-12-28T14:28:40;3.63;;;2.20;;
49610;SDS011;35515;48.766;9.176;2023-12-28T14:31:08;4.22;;;2.53;;
49610;SDS011;35515;48.766;9.176;2023-12-28T14:33:35;5.35;;;2.25;;
49610;SDS011;35515;48.766;9.176;2023-12-28T14:36:06;3.88;;;1.90;;
49610;SDS011;35515;48.766;9.176;2023-12-28T14:38:39;4.47;;;2.38;;
49610;SDS011;35515;48.766;9.176;2023-12-28T14:41:05;3.28;;;1.95;;
49610;SDS011;35515;48.766;9.176;2023-12-28T14:43:32;2.97;;;1.90;;
49610;SDS011;35515;48.766;9.176;2023-12-28T14:45:58;3.42;;;2.10;;
49610;SDS011;35515;48.766;9.176;2023-12-28T14:48:25;2.85;;;2.08;;
49610;SDS011;35515;48.766;9.176;2023-12-28T14:50:51;4.82;;;2.20;;